N357AZ KEWR-KCLT
Flight info
| Callsign | N357AZ |
|---|---|
| Flight time | 1h 51m |
| Altitude | 23000 |
| Route | DCT |
| Aircraft | C25C/M-G/C |
Departure
| Time | 2026-05-05 01:32 |
|---|---|
| Airport | Newark Liberty International Airport (KEWR) |
Arrival
| Time | 2026-05-05 03:24 |
|---|---|
| Airport | Charlotte Douglas International Airport (KCLT) |
| Time | Latitude | Longitude | Altitude | Speed | Heading |
|---|---|---|---|---|---|
| 2026-05-05 01:05 | 40.70408 | -74.16726 | 15 ft | 0 kts | 74° |
| 2026-05-05 01:28 | 40.70409 | -74.16724 | 15 ft | 3 kts | 75° |
| 2026-05-05 01:28 | 40.70424 | -74.16619 | 15 ft | 20 kts | 97° |
| 2026-05-05 01:28 | 40.70383 | -74.16577 | 15 ft | 0 kts | 184° |
| 2026-05-05 01:29 | 40.70335 | -74.16578 | 14 ft | 8 kts | 176° |
| 2026-05-05 01:29 | 40.70289 | -74.16503 | 12 ft | 19 kts | 88° |
| 2026-05-05 01:29 | 40.70287 | -74.16338 | 12 ft | 13 kts | 62° |
| 2026-05-05 01:30 | 40.70326 | -74.16247 | 14 ft | 9 kts | 87° |
| 2026-05-05 01:30 | 40.70296 | -74.16204 | 14 ft | 0 kts | 176° |
| 2026-05-05 01:30 | 40.70285 | -74.16206 | 13 ft | 7 kts | 192° |
| 2026-05-05 01:31 | 40.70204 | -74.16255 | 11 ft | 16 kts | 208° |
| 2026-05-05 01:31 | 40.70075 | -74.16337 | 9 ft | 24 kts | 205° |
| 2026-05-05 01:31 | 40.69972 | -74.16400 | 7 ft | 2 kts | 205° |
| 2026-05-05 01:31 | 40.69952 | -74.16412 | 7 ft | 0 kts | 205° |
| 2026-05-05 01:32 | 40.69941 | -74.16419 | 7 ft | 19 kts | 206° |
| 2026-05-05 01:32 | 40.69448 | -74.16729 | 28 ft | 135 kts | 204° |
| 2026-05-05 01:32 | 40.68425 | -74.17391 | 650 ft | 182 kts | 206° |
| 2026-05-05 01:32 | 40.67218 | -74.18146 | 1926 ft | 193 kts | 203° |
| 2026-05-05 01:33 | 40.66018 | -74.18701 | 3812 ft | 170 kts | 206° |
| 2026-05-05 01:33 | 40.64984 | -74.19300 | 5622 ft | 157 kts | 211° |
| 2026-05-05 01:33 | 40.63980 | -74.20039 | 6746 ft | 190 kts | 216° |
| 2026-05-05 01:33 | 40.62685 | -74.21091 | 7128 ft | 233 kts | 216° |
| 2026-05-05 01:34 | 40.61812 | -74.21808 | 7476 ft | 240 kts | 216° |
| 2026-05-05 01:35 | 40.61374 | -74.22168 | 7582 ft | 245 kts | 216° |
| 2026-05-05 01:36 | 40.59853 | -74.23430 | 7647 ft | 268 kts | 216° |
| 2026-05-05 01:36 | 40.58250 | -74.24767 | 7899 ft | 276 kts | 216° |
| 2026-05-05 01:36 | 40.56628 | -74.26120 | 8281 ft | 277 kts | 216° |
| 2026-05-05 01:36 | 40.54990 | -74.27483 | 8676 ft | 279 kts | 216° |
| 2026-05-05 01:37 | 40.53343 | -74.28851 | 9065 ft | 280 kts | 216° |
| 2026-05-05 01:37 | 40.51712 | -74.30201 | 9449 ft | 281 kts | 216° |
| 2026-05-05 01:37 | 40.50052 | -74.31573 | 9842 ft | 282 kts | 216° |
| 2026-05-05 01:37 | 40.48382 | -74.32951 | 10172 ft | 283 kts | 216° |
| 2026-05-05 01:38 | 40.46706 | -74.34326 | 10519 ft | 284 kts | 216° |
| 2026-05-05 01:38 | 40.45031 | -74.35703 | 10872 ft | 284 kts | 216° |
| 2026-05-05 01:38 | 40.43345 | -74.37078 | 11235 ft | 284 kts | 216° |
| 2026-05-05 01:38 | 40.41666 | -74.38450 | 11592 ft | 284 kts | 216° |
| 2026-05-05 01:39 | 40.41249 | -74.38790 | 11680 ft | 284 kts | 216° |
| 2026-05-05 01:39 | 40.41002 | -74.38991 | 11731 ft | 285 kts | 216° |
| 2026-05-05 01:40 | 40.40361 | -74.39511 | 11812 ft | 287 kts | 216° |
| 2026-05-05 01:40 | 40.38637 | -74.40908 | 11298 ft | 306 kts | 216° |
| 2026-05-05 01:41 | 40.36681 | -74.42555 | 9907 ft | 346 kts | 217° |
| 2026-05-05 01:41 | 40.34763 | -74.44164 | 10338 ft | 311 kts | 217° |
| 2026-05-05 01:41 | 40.32998 | -74.45629 | 10707 ft | 291 kts | 217° |
| 2026-05-05 01:41 | 40.31315 | -74.47008 | 11055 ft | 279 kts | 216° |
| 2026-05-05 01:42 | 40.29684 | -74.48335 | 11375 ft | 273 kts | 217° |
| 2026-05-05 01:42 | 40.28081 | -74.49633 | 11610 ft | 272 kts | 216° |
| 2026-05-05 01:42 | 40.26467 | -74.50937 | 11575 ft | 280 kts | 216° |
| 2026-05-05 01:42 | 40.24798 | -74.52293 | 11567 ft | 284 kts | 216° |
| 2026-05-05 01:43 | 40.23108 | -74.53659 | 11572 ft | 287 kts | 216° |
| 2026-05-05 01:43 | 40.22360 | -74.54265 | 11572 ft | 287 kts | 216° |
| 2026-05-05 01:44 | 40.22010 | -74.54549 | 11570 ft | 288 kts | 216° |
| 2026-05-05 01:44 | 40.20301 | -74.55935 | 11575 ft | 289 kts | 216° |
| 2026-05-05 01:44 | 40.18584 | -74.57321 | 11576 ft | 290 kts | 216° |
| 2026-05-05 01:45 | 40.17831 | -74.57930 | 11575 ft | 290 kts | 216° |
| 2026-05-05 01:46 | 40.16427 | -74.59065 | 11572 ft | 290 kts | 216° |
| 2026-05-05 01:55 | 40.16187 | -74.59259 | 11587 ft | 294 kts | 216° |
| 2026-05-05 01:55 | 40.14409 | -74.60694 | 12200 ft | 299 kts | 216° |
| 2026-05-05 01:55 | 40.12628 | -74.62130 | 12905 ft | 303 kts | 216° |
| 2026-05-05 01:55 | 40.10814 | -74.63594 | 13537 ft | 308 kts | 216° |
| 2026-05-05 01:56 | 40.08983 | -74.65067 | 14098 ft | 311 kts | 215° |
| 2026-05-05 01:56 | 40.07156 | -74.66550 | 14665 ft | 313 kts | 216° |
| 2026-05-05 01:56 | 40.05360 | -74.68194 | 15191 ft | 315 kts | 219° |
| 2026-05-05 01:56 | 40.03575 | -74.69876 | 15690 ft | 317 kts | 219° |
| 2026-05-05 01:57 | 40.01788 | -74.71591 | 16155 ft | 319 kts | 220° |
| 2026-05-05 01:57 | 39.99984 | -74.73313 | 16608 ft | 321 kts | 220° |
| 2026-05-05 01:57 | 39.98181 | -74.75049 | 17025 ft | 323 kts | 220° |
| 2026-05-05 01:57 | 39.96381 | -74.76765 | 17416 ft | 326 kts | 220° |
| 2026-05-05 01:58 | 39.94511 | -74.78534 | 17432 ft | 337 kts | 219° |
| 2026-05-05 01:58 | 39.92580 | -74.80340 | 17438 ft | 345 kts | 219° |
| 2026-05-05 01:58 | 39.90617 | -74.82161 | 17439 ft | 349 kts | 218° |
| 2026-05-05 01:58 | 39.88614 | -74.83993 | 17433 ft | 353 kts | 218° |
| 2026-05-05 01:59 | 39.86593 | -74.85824 | 17437 ft | 355 kts | 218° |
| 2026-05-05 01:59 | 39.84545 | -74.87651 | 17440 ft | 356 kts | 217° |
| 2026-05-05 01:59 | 39.82484 | -74.89475 | 17449 ft | 357 kts | 217° |
| 2026-05-05 01:59 | 39.80431 | -74.91261 | 17476 ft | 357 kts | 217° |
| 2026-05-05 02:00 | 39.78340 | -74.93064 | 17494 ft | 358 kts | 217° |
| 2026-05-05 02:00 | 39.76279 | -74.94813 | 17515 ft | 358 kts | 216° |
| 2026-05-05 02:00 | 39.74237 | -74.96656 | 17532 ft | 357 kts | 219° |
| 2026-05-05 02:00 | 39.72232 | -74.98569 | 17557 ft | 357 kts | 219° |
| 2026-05-05 02:01 | 39.70267 | -75.00476 | 17921 ft | 348 kts | 220° |
| 2026-05-05 02:01 | 39.68387 | -75.02292 | 18324 ft | 324 kts | 220° |
| 2026-05-05 02:01 | 39.66632 | -75.03987 | 18688 ft | 306 kts | 220° |
| 2026-05-05 02:01 | 39.64945 | -75.05596 | 19049 ft | 294 kts | 220° |
| 2026-05-05 02:02 | 39.63326 | -75.07144 | 19417 ft | 285 kts | 220° |
| 2026-05-05 02:02 | 39.61751 | -75.08654 | 19788 ft | 279 kts | 220° |
| 2026-05-05 02:02 | 39.60216 | -75.10129 | 20162 ft | 275 kts | 220° |
| 2026-05-05 02:02 | 39.58692 | -75.11597 | 20548 ft | 272 kts | 220° |
| 2026-05-05 02:03 | 39.57172 | -75.13053 | 20937 ft | 270 kts | 220° |
| 2026-05-05 02:03 | 39.55644 | -75.14525 | 21329 ft | 280 kts | 220° |
| 2026-05-05 02:03 | 39.54091 | -75.16023 | 22106 ft | 278 kts | 220° |
| 2026-05-05 02:03 | 39.52517 | -75.17540 | 22634 ft | 287 kts | 220° |
| 2026-05-05 02:04 | 39.50859 | -75.19156 | 22645 ft | 308 kts | 220° |
| 2026-05-05 02:04 | 39.49117 | -75.20855 | 22660 ft | 318 kts | 220° |
| 2026-05-05 02:04 | 39.47338 | -75.22603 | 22668 ft | 324 kts | 220° |
| 2026-05-05 02:04 | 39.45525 | -75.24382 | 22683 ft | 329 kts | 220° |
| 2026-05-05 02:05 | 39.43708 | -75.26213 | 22707 ft | 332 kts | 222° |
| 2026-05-05 02:05 | 39.41947 | -75.28158 | 22707 ft | 334 kts | 224° |
| 2026-05-05 02:05 | 39.40208 | -75.30120 | 22723 ft | 336 kts | 224° |
| 2026-05-05 02:05 | 39.38445 | -75.32128 | 22728 ft | 337 kts | 224° |
| 2026-05-05 02:06 | 39.36666 | -75.34118 | 22752 ft | 338 kts | 224° |
| 2026-05-05 02:06 | 39.34918 | -75.36156 | 22759 ft | 338 kts | 224° |
| 2026-05-05 02:06 | 39.33153 | -75.38177 | 22758 ft | 339 kts | 224° |
| 2026-05-05 02:06 | 39.31392 | -75.40208 | 22751 ft | 339 kts | 224° |
| 2026-05-05 02:07 | 39.29622 | -75.42159 | 22761 ft | 340 kts | 221° |
| 2026-05-05 02:07 | 39.27701 | -75.43994 | 22804 ft | 339 kts | 220° |
| 2026-05-05 02:07 | 39.25916 | -75.45942 | 22828 ft | 338 kts | 224° |
| 2026-05-05 02:07 | 39.24145 | -75.47955 | 22849 ft | 338 kts | 224° |
| 2026-05-05 02:08 | 39.22393 | -75.49985 | 22870 ft | 338 kts | 224° |
| 2026-05-05 02:08 | 39.20645 | -75.52007 | 22885 ft | 338 kts | 224° |
| 2026-05-05 02:08 | 39.18900 | -75.54040 | 22898 ft | 338 kts | 224° |
| 2026-05-05 02:08 | 39.17146 | -75.56075 | 22910 ft | 338 kts | 224° |
| 2026-05-05 02:09 | 39.15398 | -75.58112 | 22921 ft | 339 kts | 224° |
| 2026-05-05 02:09 | 39.13647 | -75.60148 | 22929 ft | 339 kts | 224° |
| 2026-05-05 02:09 | 39.11900 | -75.62184 | 22929 ft | 339 kts | 224° |
| 2026-05-05 02:09 | 39.10150 | -75.64232 | 22928 ft | 339 kts | 224° |
| 2026-05-05 02:10 | 39.08421 | -75.66252 | 22928 ft | 339 kts | 224° |
| 2026-05-05 02:10 | 39.06677 | -75.68298 | 22930 ft | 339 kts | 224° |
| 2026-05-05 02:10 | 39.04922 | -75.70347 | 22932 ft | 339 kts | 224° |
| 2026-05-05 02:10 | 39.03186 | -75.72386 | 22931 ft | 339 kts | 224° |
| 2026-05-05 02:11 | 39.01430 | -75.74437 | 22933 ft | 339 kts | 224° |
| 2026-05-05 02:11 | 38.99684 | -75.76488 | 22931 ft | 339 kts | 224° |
| 2026-05-05 02:11 | 38.97938 | -75.78530 | 22937 ft | 339 kts | 224° |
| 2026-05-05 02:11 | 38.96198 | -75.80578 | 22942 ft | 339 kts | 224° |
| 2026-05-05 02:12 | 38.94487 | -75.82605 | 22940 ft | 339 kts | 225° |
| 2026-05-05 02:12 | 38.91016 | -75.86732 | 22931 ft | 339 kts | 225° |
| 2026-05-05 02:12 | 38.89285 | -75.88793 | 22938 ft | 339 kts | 224° |
| 2026-05-05 02:13 | 38.87558 | -75.90859 | 22940 ft | 338 kts | 225° |
| 2026-05-05 02:13 | 38.85857 | -75.92885 | 22938 ft | 338 kts | 224° |
| 2026-05-05 02:13 | 38.84128 | -75.94955 | 22942 ft | 338 kts | 225° |
| 2026-05-05 02:13 | 38.82403 | -75.97009 | 22947 ft | 338 kts | 225° |
| 2026-05-05 02:14 | 38.80672 | -75.99082 | 22941 ft | 338 kts | 225° |
| 2026-05-05 02:14 | 38.78947 | -76.01138 | 22941 ft | 338 kts | 225° |
| 2026-05-05 02:14 | 38.77244 | -76.03178 | 22947 ft | 338 kts | 225° |
| 2026-05-05 02:14 | 38.75520 | -76.05234 | 22947 ft | 338 kts | 225° |
| 2026-05-05 02:15 | 38.73805 | -76.07289 | 22940 ft | 338 kts | 225° |
| 2026-05-05 02:15 | 38.72081 | -76.09344 | 22944 ft | 338 kts | 225° |
| 2026-05-05 02:15 | 38.70358 | -76.11395 | 22947 ft | 338 kts | 225° |
| 2026-05-05 02:15 | 38.68647 | -76.13430 | 22943 ft | 335 kts | 225° |
| 2026-05-05 02:16 | 38.66940 | -76.15456 | 22956 ft | 331 kts | 225° |
| 2026-05-05 02:16 | 38.65257 | -76.17458 | 22954 ft | 329 kts | 225° |
| 2026-05-05 02:16 | 38.63579 | -76.19444 | 22951 ft | 328 kts | 225° |
| 2026-05-05 02:16 | 38.61905 | -76.21435 | 22951 ft | 327 kts | 225° |
| 2026-05-05 02:17 | 38.60240 | -76.23405 | 22953 ft | 326 kts | 225° |
| 2026-05-05 02:17 | 38.58602 | -76.25353 | 22951 ft | 325 kts | 225° |
| 2026-05-05 02:17 | 38.56946 | -76.27314 | 22952 ft | 325 kts | 225° |
| 2026-05-05 02:17 | 38.55291 | -76.29279 | 22945 ft | 324 kts | 225° |
| 2026-05-05 02:18 | 38.53626 | -76.31255 | 22954 ft | 323 kts | 226° |
| 2026-05-05 02:18 | 38.51960 | -76.33193 | 22953 ft | 323 kts | 225° |
| 2026-05-05 02:18 | 38.50311 | -76.35091 | 22954 ft | 322 kts | 225° |
| 2026-05-05 02:18 | 38.48638 | -76.37003 | 22952 ft | 322 kts | 225° |
| 2026-05-05 02:19 | 38.46973 | -76.38912 | 22949 ft | 322 kts | 225° |
| 2026-05-05 02:19 | 38.45301 | -76.40819 | 22952 ft | 321 kts | 225° |
| 2026-05-05 02:19 | 38.43631 | -76.42734 | 22951 ft | 321 kts | 225° |
| 2026-05-05 02:19 | 38.41971 | -76.44630 | 22956 ft | 321 kts | 225° |
| 2026-05-05 02:20 | 38.40328 | -76.46511 | 22947 ft | 321 kts | 225° |
| 2026-05-05 02:20 | 38.38661 | -76.48418 | 22949 ft | 321 kts | 225° |
| 2026-05-05 02:20 | 38.36998 | -76.50319 | 22954 ft | 321 kts | 225° |
| 2026-05-05 02:20 | 38.35332 | -76.52223 | 22959 ft | 321 kts | 225° |
| 2026-05-05 02:21 | 38.33655 | -76.54111 | 22954 ft | 320 kts | 226° |
| 2026-05-05 02:21 | 38.31983 | -76.55973 | 22955 ft | 320 kts | 225° |
| 2026-05-05 02:21 | 38.30319 | -76.57799 | 22954 ft | 319 kts | 225° |
| 2026-05-05 02:21 | 38.28630 | -76.59647 | 22953 ft | 319 kts | 225° |
| 2026-05-05 02:22 | 38.26953 | -76.61485 | 22952 ft | 318 kts | 225° |
| 2026-05-05 02:22 | 38.25270 | -76.63322 | 22953 ft | 318 kts | 225° |
| 2026-05-05 02:22 | 38.23595 | -76.65161 | 22951 ft | 318 kts | 225° |
| 2026-05-05 02:22 | 38.21914 | -76.66997 | 22950 ft | 318 kts | 225° |
| 2026-05-05 02:23 | 38.20233 | -76.68841 | 22953 ft | 318 kts | 225° |
| 2026-05-05 02:23 | 38.18560 | -76.70671 | 22952 ft | 318 kts | 225° |
| 2026-05-05 02:23 | 38.16880 | -76.72512 | 22953 ft | 318 kts | 225° |
| 2026-05-05 02:23 | 38.15214 | -76.74338 | 22952 ft | 318 kts | 225° |
| 2026-05-05 02:24 | 38.13534 | -76.76176 | 22942 ft | 317 kts | 225° |
| 2026-05-05 02:24 | 38.11857 | -76.78001 | 22952 ft | 317 kts | 225° |
| 2026-05-05 02:24 | 38.10173 | -76.79810 | 22951 ft | 316 kts | 225° |
| 2026-05-05 02:24 | 38.08489 | -76.81616 | 22953 ft | 316 kts | 225° |
| 2026-05-05 02:25 | 38.06811 | -76.83416 | 22953 ft | 316 kts | 225° |
| 2026-05-05 02:25 | 38.05131 | -76.85214 | 22952 ft | 316 kts | 225° |
| 2026-05-05 02:25 | 38.03454 | -76.87015 | 22949 ft | 316 kts | 225° |
| 2026-05-05 02:25 | 38.01797 | -76.88799 | 22949 ft | 315 kts | 225° |
| 2026-05-05 02:26 | 38.00132 | -76.90613 | 22958 ft | 315 kts | 225° |
| 2026-05-05 02:26 | 37.98465 | -76.92425 | 22957 ft | 314 kts | 225° |
| 2026-05-05 02:26 | 37.97368 | -76.93625 | 22957 ft | 314 kts | 225° |
| 2026-05-05 02:26 | 37.95706 | -76.95432 | 22982 ft | 314 kts | 225° |
| 2026-05-05 02:27 | 37.94061 | -76.97238 | 22979 ft | 314 kts | 225° |
| 2026-05-05 02:27 | 37.92399 | -76.99041 | 22980 ft | 313 kts | 225° |
| 2026-05-05 02:27 | 37.90205 | -77.01433 | 22981 ft | 314 kts | 225° |
| 2026-05-05 02:27 | 37.89102 | -77.02632 | 22980 ft | 314 kts | 225° |
| 2026-05-05 02:28 | 37.87442 | -77.04444 | 22980 ft | 314 kts | 225° |
| 2026-05-05 02:28 | 37.85783 | -77.06251 | 22979 ft | 314 kts | 225° |
| 2026-05-05 02:28 | 37.84123 | -77.08061 | 22978 ft | 314 kts | 225° |
| 2026-05-05 02:28 | 37.82467 | -77.09870 | 22977 ft | 314 kts | 225° |
| 2026-05-05 02:29 | 37.80827 | -77.11657 | 22976 ft | 315 kts | 225° |
| 2026-05-05 02:29 | 37.79168 | -77.13471 | 22975 ft | 315 kts | 225° |
| 2026-05-05 02:29 | 37.77506 | -77.15281 | 22973 ft | 315 kts | 225° |
| 2026-05-05 02:29 | 37.75844 | -77.17101 | 22975 ft | 315 kts | 225° |
| 2026-05-05 02:30 | 37.74188 | -77.18906 | 22973 ft | 315 kts | 225° |
| 2026-05-05 02:30 | 37.72531 | -77.20718 | 22974 ft | 315 kts | 225° |
| 2026-05-05 02:30 | 37.70872 | -77.22526 | 22975 ft | 315 kts | 225° |
| 2026-05-05 02:30 | 37.69216 | -77.24336 | 22977 ft | 314 kts | 225° |
| 2026-05-05 02:31 | 37.67589 | -77.26128 | 22983 ft | 314 kts | 225° |
| 2026-05-05 02:31 | 37.65943 | -77.27940 | 22983 ft | 314 kts | 225° |
| 2026-05-05 02:31 | 37.64305 | -77.29753 | 22983 ft | 313 kts | 225° |
| 2026-05-05 02:31 | 37.62650 | -77.31576 | 22975 ft | 313 kts | 225° |
| 2026-05-05 02:32 | 37.61012 | -77.33388 | 22975 ft | 313 kts | 225° |
| 2026-05-05 02:32 | 37.59368 | -77.35203 | 22976 ft | 313 kts | 226° |
| 2026-05-05 02:32 | 37.57749 | -77.36992 | 22975 ft | 313 kts | 225° |
| 2026-05-05 02:32 | 37.56113 | -77.38802 | 22975 ft | 313 kts | 226° |
| 2026-05-05 02:33 | 37.54466 | -77.40619 | 22971 ft | 313 kts | 225° |
| 2026-05-05 02:33 | 37.52829 | -77.42435 | 22972 ft | 313 kts | 226° |
| 2026-05-05 02:33 | 37.51187 | -77.44246 | 22973 ft | 313 kts | 226° |
| 2026-05-05 02:33 | 37.49548 | -77.46062 | 22991 ft | 313 kts | 225° |
| 2026-05-05 02:34 | 37.47927 | -77.47850 | 22991 ft | 314 kts | 226° |
| 2026-05-05 02:34 | 37.46286 | -77.49666 | 22993 ft | 314 kts | 225° |
| 2026-05-05 02:34 | 37.44647 | -77.51479 | 22993 ft | 314 kts | 226° |
| 2026-05-05 02:34 | 37.43001 | -77.53299 | 22991 ft | 314 kts | 225° |
| 2026-05-05 02:35 | 37.41357 | -77.55120 | 22991 ft | 314 kts | 226° |
| 2026-05-05 02:35 | 37.39711 | -77.56939 | 22992 ft | 314 kts | 225° |
| 2026-05-05 02:35 | 37.38073 | -77.58757 | 22992 ft | 314 kts | 226° |
| 2026-05-05 02:35 | 37.36428 | -77.60576 | 22992 ft | 314 kts | 225° |
| 2026-05-05 02:36 | 37.34788 | -77.62407 | 22989 ft | 314 kts | 226° |
| 2026-05-05 02:36 | 37.33151 | -77.64228 | 22990 ft | 314 kts | 226° |
| 2026-05-05 02:36 | 37.31537 | -77.66036 | 22991 ft | 314 kts | 226° |
| 2026-05-05 02:36 | 37.29899 | -77.67866 | 22992 ft | 314 kts | 226° |
| 2026-05-05 02:37 | 37.28266 | -77.69700 | 22989 ft | 314 kts | 226° |
| 2026-05-05 02:37 | 37.26633 | -77.71537 | 22988 ft | 315 kts | 226° |
| 2026-05-05 02:37 | 37.25000 | -77.73375 | 22996 ft | 315 kts | 226° |
| 2026-05-05 02:37 | 37.23370 | -77.75214 | 22996 ft | 315 kts | 226° |
| 2026-05-05 02:38 | 37.21732 | -77.77056 | 22999 ft | 315 kts | 226° |
| 2026-05-05 02:38 | 37.20103 | -77.78898 | 22998 ft | 315 kts | 226° |
| 2026-05-05 02:38 | 37.18469 | -77.80735 | 22997 ft | 315 kts | 226° |
| 2026-05-05 02:38 | 37.16840 | -77.82576 | 22986 ft | 315 kts | 226° |
| 2026-05-05 02:39 | 37.15225 | -77.84396 | 22982 ft | 315 kts | 226° |
| 2026-05-05 02:39 | 37.13591 | -77.86239 | 22982 ft | 315 kts | 226° |
| 2026-05-05 02:39 | 37.11963 | -77.88079 | 22983 ft | 315 kts | 226° |
| 2026-05-05 02:39 | 37.10324 | -77.89927 | 22982 ft | 316 kts | 226° |
| 2026-05-05 02:40 | 37.08697 | -77.91770 | 22984 ft | 315 kts | 226° |
| 2026-05-05 02:40 | 37.07068 | -77.93616 | 22982 ft | 316 kts | 226° |
| 2026-05-05 02:40 | 37.05443 | -77.95472 | 22980 ft | 316 kts | 226° |
| 2026-05-05 02:40 | 37.03813 | -77.97330 | 22987 ft | 316 kts | 226° |
| 2026-05-05 02:41 | 37.02209 | -77.99159 | 22988 ft | 317 kts | 226° |
| 2026-05-05 02:41 | 37.00581 | -78.01019 | 22988 ft | 317 kts | 226° |
| 2026-05-05 02:41 | 36.98934 | -78.02895 | 22989 ft | 317 kts | 226° |
| 2026-05-05 02:41 | 36.97321 | -78.04742 | 22990 ft | 317 kts | 226° |
| 2026-05-05 02:42 | 36.95693 | -78.06597 | 22990 ft | 317 kts | 226° |
| 2026-05-05 02:42 | 36.94070 | -78.08455 | 22990 ft | 317 kts | 226° |
| 2026-05-05 02:42 | 36.92435 | -78.10321 | 22992 ft | 317 kts | 226° |
| 2026-05-05 02:42 | 36.90806 | -78.12184 | 22990 ft | 317 kts | 226° |
| 2026-05-05 02:43 | 36.89192 | -78.14031 | 23034 ft | 317 kts | 226° |
| 2026-05-05 02:43 | 36.87567 | -78.15886 | 23032 ft | 317 kts | 226° |
| 2026-05-05 02:43 | 36.85941 | -78.17757 | 23032 ft | 317 kts | 226° |
| 2026-05-05 02:43 | 36.84314 | -78.19628 | 23033 ft | 317 kts | 226° |
| 2026-05-05 02:44 | 36.82695 | -78.21500 | 23037 ft | 317 kts | 226° |
| 2026-05-05 02:44 | 36.81064 | -78.23377 | 23036 ft | 318 kts | 226° |
| 2026-05-05 02:44 | 36.79442 | -78.25255 | 23034 ft | 318 kts | 226° |
| 2026-05-05 02:44 | 36.77816 | -78.27129 | 23001 ft | 318 kts | 226° |
| 2026-05-05 02:45 | 36.76775 | -78.28336 | 23001 ft | 318 kts | 226° |
| 2026-05-05 02:45 | 36.75987 | -78.29243 | 23002 ft | 318 kts | 226° |
| 2026-05-05 02:45 | 36.74363 | -78.31119 | 23003 ft | 318 kts | 226° |
| 2026-05-05 02:46 | 36.72739 | -78.32994 | 23003 ft | 318 kts | 226° |
| 2026-05-05 02:46 | 36.71131 | -78.34854 | 23005 ft | 318 kts | 226° |
| 2026-05-05 02:46 | 36.69507 | -78.36727 | 23005 ft | 318 kts | 226° |
| 2026-05-05 02:46 | 36.67885 | -78.38607 | 23005 ft | 318 kts | 226° |
| 2026-05-05 02:47 | 36.66261 | -78.40482 | 22995 ft | 318 kts | 226° |
| 2026-05-05 02:47 | 36.64646 | -78.42362 | 23006 ft | 318 kts | 226° |
| 2026-05-05 02:47 | 36.63033 | -78.44252 | 23006 ft | 318 kts | 226° |
| 2026-05-05 02:47 | 36.61440 | -78.46123 | 23001 ft | 318 kts | 226° |
| 2026-05-05 02:48 | 36.59828 | -78.48021 | 23000 ft | 318 kts | 226° |
| 2026-05-05 02:48 | 36.58218 | -78.49911 | 22998 ft | 318 kts | 226° |
| 2026-05-05 02:48 | 36.56607 | -78.51812 | 23000 ft | 318 kts | 226° |
| 2026-05-05 02:48 | 36.54998 | -78.53701 | 23014 ft | 318 kts | 226° |
| 2026-05-05 02:49 | 36.53391 | -78.55597 | 23020 ft | 319 kts | 226° |
| 2026-05-05 02:49 | 36.51776 | -78.57496 | 23021 ft | 319 kts | 226° |
| 2026-05-05 02:49 | 36.50169 | -78.59391 | 23019 ft | 319 kts | 226° |
| 2026-05-05 02:49 | 36.48560 | -78.61287 | 23024 ft | 319 kts | 226° |
| 2026-05-05 02:50 | 36.46950 | -78.63183 | 23024 ft | 319 kts | 226° |
| 2026-05-05 02:50 | 36.45340 | -78.65084 | 23022 ft | 319 kts | 226° |
| 2026-05-05 02:50 | 36.43732 | -78.66977 | 23023 ft | 318 kts | 226° |
| 2026-05-05 02:50 | 36.42133 | -78.68874 | 23032 ft | 318 kts | 226° |
| 2026-05-05 02:51 | 36.40527 | -78.70765 | 23029 ft | 318 kts | 226° |
| 2026-05-05 02:51 | 36.38918 | -78.72663 | 23028 ft | 318 kts | 226° |
| 2026-05-05 02:51 | 36.37328 | -78.74525 | 23027 ft | 318 kts | 226° |
| 2026-05-05 02:51 | 36.35727 | -78.76410 | 23036 ft | 318 kts | 226° |
| 2026-05-05 02:52 | 36.34118 | -78.78298 | 23040 ft | 318 kts | 226° |
| 2026-05-05 02:52 | 36.32512 | -78.80186 | 23043 ft | 318 kts | 226° |
| 2026-05-05 02:52 | 36.30904 | -78.82076 | 23048 ft | 318 kts | 227° |
| 2026-05-05 02:52 | 36.29297 | -78.83962 | 23050 ft | 318 kts | 226° |
| 2026-05-05 02:53 | 36.27693 | -78.85851 | 23053 ft | 318 kts | 226° |
| 2026-05-05 02:53 | 36.26088 | -78.87734 | 23055 ft | 318 kts | 226° |
| 2026-05-05 02:53 | 36.24486 | -78.89624 | 23054 ft | 318 kts | 226° |
| 2026-05-05 02:53 | 36.22882 | -78.91509 | 23031 ft | 317 kts | 226° |
| 2026-05-05 02:54 | 36.21304 | -78.93373 | 23048 ft | 317 kts | 226° |
| 2026-05-05 02:54 | 36.19704 | -78.95262 | 23047 ft | 317 kts | 227° |
| 2026-05-05 02:54 | 36.18106 | -78.97148 | 23045 ft | 317 kts | 226° |
| 2026-05-05 02:54 | 36.16506 | -78.99042 | 23042 ft | 317 kts | 227° |
| 2026-05-05 02:55 | 36.14906 | -79.00930 | 23036 ft | 317 kts | 226° |
| 2026-05-05 02:55 | 36.13331 | -79.02798 | 23035 ft | 317 kts | 227° |
| 2026-05-05 02:55 | 36.11729 | -79.04688 | 23031 ft | 317 kts | 227° |
| 2026-05-05 02:55 | 36.10133 | -79.06583 | 23033 ft | 317 kts | 227° |
| 2026-05-05 02:56 | 36.08537 | -79.08466 | 23029 ft | 317 kts | 227° |
| 2026-05-05 02:56 | 36.06939 | -79.10355 | 23027 ft | 317 kts | 226° |
| 2026-05-05 02:56 | 36.05343 | -79.12240 | 23028 ft | 317 kts | 227° |
| 2026-05-05 02:56 | 36.03746 | -79.14128 | 23019 ft | 317 kts | 226° |
| 2026-05-05 02:57 | 36.02173 | -79.15990 | 23020 ft | 317 kts | 227° |
| 2026-05-05 02:57 | 36.00572 | -79.17881 | 23015 ft | 317 kts | 226° |
| 2026-05-05 02:57 | 35.98979 | -79.19774 | 23019 ft | 317 kts | 227° |
| 2026-05-05 02:57 | 35.97385 | -79.21662 | 23019 ft | 317 kts | 227° |
| 2026-05-05 02:58 | 35.95773 | -79.23582 | 22649 ft | 327 kts | 227° |
| 2026-05-05 02:58 | 35.94115 | -79.25553 | 22234 ft | 335 kts | 227° |
| 2026-05-05 02:58 | 35.92429 | -79.27567 | 21900 ft | 338 kts | 227° |
| 2026-05-05 02:58 | 35.90723 | -79.29596 | 21492 ft | 342 kts | 227° |
| 2026-05-05 02:59 | 35.89007 | -79.31643 | 21091 ft | 344 kts | 227° |
| 2026-05-05 02:59 | 35.87301 | -79.33670 | 20705 ft | 346 kts | 227° |
| 2026-05-05 02:59 | 35.85564 | -79.35736 | 20330 ft | 346 kts | 227° |
| 2026-05-05 02:59 | 35.83824 | -79.37801 | 19944 ft | 347 kts | 227° |
| 2026-05-05 03:00 | 35.82087 | -79.39857 | 19562 ft | 346 kts | 227° |
| 2026-05-05 03:00 | 35.80349 | -79.41913 | 19185 ft | 346 kts | 227° |
| 2026-05-05 03:00 | 35.78633 | -79.43930 | 18817 ft | 330 kts | 227° |
| 2026-05-05 03:00 | 35.77047 | -79.45777 | 18424 ft | 297 kts | 227° |
| 2026-05-05 03:01 | 35.75593 | -79.47441 | 17991 ft | 275 kts | 227° |
| 2026-05-05 03:01 | 35.74231 | -79.49000 | 17547 ft | 261 kts | 227° |
| 2026-05-05 03:01 | 35.72910 | -79.50501 | 17108 ft | 257 kts | 227° |
| 2026-05-05 03:01 | 35.71577 | -79.52033 | 16684 ft | 267 kts | 227° |
| 2026-05-05 03:02 | 35.70204 | -79.53618 | 16274 ft | 273 kts | 227° |
| 2026-05-05 03:02 | 35.68815 | -79.55234 | 15875 ft | 278 kts | 227° |
| 2026-05-05 03:02 | 35.67397 | -79.56896 | 15483 ft | 284 kts | 227° |
| 2026-05-05 03:02 | 35.65974 | -79.58567 | 15105 ft | 289 kts | 227° |
| 2026-05-05 03:03 | 35.64516 | -79.60297 | 14721 ft | 292 kts | 227° |
| 2026-05-05 03:03 | 35.63047 | -79.62040 | 14343 ft | 293 kts | 227° |
| 2026-05-05 03:03 | 35.61582 | -79.63795 | 13969 ft | 295 kts | 227° |
| 2026-05-05 03:03 | 35.60130 | -79.65530 | 13570 ft | 295 kts | 227° |
| 2026-05-05 03:04 | 35.58643 | -79.67326 | 13158 ft | 295 kts | 227° |
| 2026-05-05 03:04 | 35.57173 | -79.69093 | 12755 ft | 295 kts | 227° |
| 2026-05-05 03:04 | 35.55714 | -79.70857 | 12351 ft | 294 kts | 227° |
| 2026-05-05 03:04 | 35.54274 | -79.72592 | 11952 ft | 293 kts | 227° |
| 2026-05-05 03:05 | 35.52830 | -79.74339 | 11596 ft | 291 kts | 227° |
| 2026-05-05 03:05 | 35.51376 | -79.76095 | 11250 ft | 289 kts | 227° |
| 2026-05-05 03:05 | 35.49970 | -79.77798 | 10915 ft | 287 kts | 227° |
| 2026-05-05 03:05 | 35.48550 | -79.79517 | 10574 ft | 286 kts | 227° |
| 2026-05-05 03:06 | 35.47133 | -79.81232 | 10243 ft | 284 kts | 227° |
| 2026-05-05 03:06 | 35.45729 | -79.82945 | 9906 ft | 283 kts | 227° |
| 2026-05-05 03:06 | 35.44399 | -79.84676 | 9542 ft | 281 kts | 233° |
| 2026-05-05 03:06 | 35.43289 | -79.86680 | 9170 ft | 279 kts | 238° |
| 2026-05-05 03:07 | 35.42249 | -79.88652 | 8834 ft | 279 kts | 239° |
| 2026-05-05 03:07 | 35.41224 | -79.90668 | 8483 ft | 278 kts | 240° |
| 2026-05-05 03:07 | 35.40257 | -79.92727 | 8134 ft | 278 kts | 243° |
| 2026-05-05 03:07 | 35.39401 | -79.94853 | 7794 ft | 277 kts | 245° |
| 2026-05-05 03:08 | 35.38564 | -79.96980 | 7457 ft | 277 kts | 245° |
| 2026-05-05 03:08 | 35.37830 | -79.99161 | 7117 ft | 277 kts | 252° |
| 2026-05-05 03:08 | 35.37395 | -80.01454 | 6781 ft | 277 kts | 259° |
| 2026-05-05 03:08 | 35.37059 | -80.03776 | 6453 ft | 277 kts | 259° |
| 2026-05-05 03:09 | 35.36757 | -80.06099 | 6189 ft | 274 kts | 260° |
| 2026-05-05 03:09 | 35.36471 | -80.08376 | 6123 ft | 266 kts | 260° |
| 2026-05-05 03:09 | 35.36296 | -80.09853 | 6107 ft | 263 kts | 261° |
| 2026-05-05 03:09 | 35.36033 | -80.12044 | 6101 ft | 258 kts | 261° |
| 2026-05-05 03:10 | 35.35947 | -80.14232 | 6093 ft | 256 kts | 269° |
| 2026-05-05 03:10 | 35.35974 | -80.16403 | 6091 ft | 254 kts | 269° |
| 2026-05-05 03:10 | 35.36016 | -80.18561 | 6091 ft | 253 kts | 269° |
| 2026-05-05 03:10 | 35.36085 | -80.20714 | 6091 ft | 252 kts | 269° |
| 2026-05-05 03:11 | 35.36146 | -80.22864 | 6103 ft | 252 kts | 270° |
| 2026-05-05 03:11 | 35.36217 | -80.25010 | 6099 ft | 252 kts | 269° |
| 2026-05-05 03:11 | 35.36284 | -80.27152 | 6094 ft | 252 kts | 270° |
| 2026-05-05 03:11 | 35.36354 | -80.29303 | 6087 ft | 252 kts | 269° |
| 2026-05-05 03:12 | 35.36421 | -80.31419 | 5993 ft | 255 kts | 270° |
| 2026-05-05 03:12 | 35.36476 | -80.33626 | 5715 ft | 256 kts | 269° |
| 2026-05-05 03:12 | 35.36536 | -80.35784 | 5438 ft | 250 kts | 270° |
| 2026-05-05 03:12 | 35.36601 | -80.37899 | 5162 ft | 246 kts | 269° |
| 2026-05-05 03:13 | 35.36684 | -80.39978 | 4886 ft | 243 kts | 269° |
| 2026-05-05 03:13 | 35.36771 | -80.42035 | 4603 ft | 241 kts | 269° |
| 2026-05-05 03:13 | 35.36875 | -80.44078 | 4319 ft | 239 kts | 269° |
| 2026-05-05 03:13 | 35.36977 | -80.46078 | 4141 ft | 235 kts | 270° |
| 2026-05-05 03:14 | 35.37093 | -80.48051 | 4091 ft | 228 kts | 269° |
| 2026-05-05 03:14 | 35.37208 | -80.49964 | 4054 ft | 223 kts | 270° |
| 2026-05-05 03:14 | 35.37323 | -80.51848 | 4047 ft | 220 kts | 270° |
| 2026-05-05 03:14 | 35.37444 | -80.53709 | 4041 ft | 219 kts | 269° |
| 2026-05-05 03:15 | 35.37355 | -80.55539 | 4041 ft | 212 kts | 255° |
| 2026-05-05 03:15 | 35.37051 | -80.57308 | 4041 ft | 211 kts | 255° |
| 2026-05-05 03:15 | 35.36734 | -80.59064 | 4039 ft | 211 kts | 253° |
| 2026-05-05 03:15 | 35.36423 | -80.60813 | 4041 ft | 211 kts | 254° |
| 2026-05-05 03:16 | 35.36105 | -80.62569 | 4085 ft | 211 kts | 254° |
| 2026-05-05 03:16 | 35.35793 | -80.64308 | 4035 ft | 212 kts | 253° |
| 2026-05-05 03:16 | 35.35461 | -80.66107 | 3798 ft | 221 kts | 254° |
| 2026-05-05 03:16 | 35.34944 | -80.67893 | 3550 ft | 223 kts | 241° |
| 2026-05-05 03:17 | 35.34246 | -80.69559 | 3311 ft | 216 kts | 240° |
| 2026-05-05 03:17 | 35.33536 | -80.71152 | 3065 ft | 210 kts | 237° |
| 2026-05-05 03:17 | 35.32825 | -80.72691 | 2815 ft | 207 kts | 238° |
| 2026-05-05 03:17 | 35.32080 | -80.74166 | 2564 ft | 204 kts | 236° |
| 2026-05-05 03:18 | 35.31340 | -80.75657 | 2316 ft | 204 kts | 236° |
| 2026-05-05 03:18 | 35.30520 | -80.77052 | 2059 ft | 200 kts | 224° |
| 2026-05-05 03:18 | 35.29490 | -80.78112 | 1799 ft | 182 kts | 219° |
| 2026-05-05 03:18 | 35.28653 | -80.79200 | 1559 ft | 169 kts | 224° |
| 2026-05-05 03:19 | 35.27064 | -80.81205 | 1384 ft | 156 kts | 232° |
| 2026-05-05 03:19 | 35.26519 | -80.82323 | 1436 ft | 151 kts | 239° |
| 2026-05-05 03:19 | 35.26276 | -80.83568 | 1426 ft | 153 kts | 257° |
| 2026-05-05 03:20 | 35.26060 | -80.84855 | 1359 ft | 156 kts | 255° |
| 2026-05-05 03:20 | 35.25835 | -80.86171 | 1264 ft | 160 kts | 255° |
| 2026-05-05 03:20 | 35.25588 | -80.87512 | 1151 ft | 162 kts | 256° |
| 2026-05-05 03:20 | 35.25271 | -80.88815 | 1077 ft | 161 kts | 248° |
| 2026-05-05 03:21 | 35.24882 | -80.90093 | 999 ft | 159 kts | 246° |
| 2026-05-05 03:21 | 35.24415 | -80.91302 | 1002 ft | 157 kts | 240° |
| 2026-05-05 03:21 | 35.23867 | -80.92409 | 1125 ft | 147 kts | 234° |
| 2026-05-05 03:21 | 35.23110 | -80.92953 | 1166 ft | 147 kts | 171° |
| 2026-05-05 03:22 | 35.22177 | -80.92554 | 1170 ft | 130 kts | 154° |
| 2026-05-05 03:22 | 35.21714 | -80.91693 | 1179 ft | 128 kts | 93° |
| 2026-05-05 03:22 | 35.22214 | -80.90903 | 1231 ft | 124 kts | 12° |
| 2026-05-05 03:22 | 35.23041 | -80.90994 | 1224 ft | 124 kts | 332° |
| 2026-05-05 03:23 | 35.23267 | -80.91754 | 1288 ft | 106 kts | 231° |
| 2026-05-05 03:23 | 35.22767 | -80.92545 | 980 ft | 127 kts | 231° |
| 2026-05-05 03:23 | 35.22138 | -80.93321 | 791 ft | 127 kts | 219° |
| 2026-05-05 03:23 | 35.21594 | -80.94019 | 718 ft | 98 kts | 225° |
| 2026-05-05 03:24 | 35.21316 | -80.94421 | 715 ft | 32 kts | 230° |
| 2026-05-05 03:24 | 35.21213 | -80.94518 | 714 ft | 16 kts | 219° |
| 2026-05-05 03:24 | 35.21107 | -80.94682 | 717 ft | 33 kts | 240° |
| 2026-05-05 03:24 | 35.21004 | -80.94868 | 717 ft | 9 kts | 236° |
| 2026-05-05 03:25 | 35.21044 | -80.94973 | 716 ft | 13 kts | 342° |
| 2026-05-05 03:25 | 35.21129 | -80.95007 | 717 ft | 2 kts | 333° |
| 2026-05-05 03:25 | 35.21193 | -80.95000 | 714 ft | 17 kts | 24° |
| 2026-05-05 03:25 | 35.21325 | -80.94993 | 713 ft | 17 kts | 352° |
| 2026-05-05 03:26 | 35.21376 | -80.95101 | 712 ft | 19 kts | 266° |
| 2026-05-05 03:26 | 35.21343 | -80.95193 | 714 ft | 15 kts | 200° |
| 2026-05-05 03:26 | 35.21207 | -80.95190 | 712 ft | 24 kts | 171° |
| 2026-05-05 03:26 | 35.21151 | -80.95116 | 713 ft | 0 kts | 81° |
| 2026-05-05 03:27 | 35.21156 | -80.95078 | 717 ft | 14 kts | 80° |
| 2026-05-05 03:27 | 35.21153 | -80.94914 | 717 ft | 24 kts | 114° |
| 2026-05-05 03:27 | 35.21016 | -80.94881 | 718 ft | 25 kts | 179° |
| 2026-05-05 03:27 | 35.20958 | -80.94879 | 716 ft | 10 kts | 179° |
| 2026-05-05 03:28 | 35.20847 | -80.94866 | 717 ft | 3 kts | 182° |
| 2026-05-05 03:28 | 35.20825 | -80.94879 | 717 ft | 5 kts | 218° |
| 2026-05-05 03:28 | 35.20782 | -80.94925 | 720 ft | 14 kts | 210° |
| 2026-05-05 03:28 | 35.20651 | -80.94934 | 723 ft | 24 kts | 173° |
| 2026-05-05 03:29 | 35.20628 | -80.94786 | 720 ft | 23 kts | 51° |
| 2026-05-05 03:29 | 35.20703 | -80.94658 | 717 ft | 15 kts | 100° |
| 2026-05-05 03:29 | 35.20691 | -80.94630 | 719 ft | 0 kts | 126° |